sensor_id;sensor_type;location;lat;lon;timestamp;pressure;altitude;pressure_sealevel;temperature;humidity
11347;BME280;5728;42.722;23.258;2023-11-19T00:00:17;94736.97;;;3.23;85.60
11347;BME280;5728;42.722;23.258;2023-11-19T00:02:43;94741.31;;;3.29;86.06
11347;BME280;5728;42.722;23.258;2023-11-19T00:05:10;94740.44;;;3.28;85.41
11347;BME280;5728;42.722;23.258;2023-11-19T00:07:37;94751.56;;;3.29;85.06
11347;BME280;5728;42.722;23.258;2023-11-19T00:10:07;94749.88;;;3.31;85.05
11347;BME280;5728;42.722;23.258;2023-11-19T00:12:35;94743.00;;;3.28;85.33
11347;BME280;5728;42.722;23.258;2023-11-19T00:15:02;94738.78;;;3.32;85.39
11347;BME280;5728;42.722;23.258;2023-11-19T00:17:31;94735.31;;;3.27;85.55
11347;BME280;5728;42.722;23.258;2023-11-19T00:19:58;94736.09;;;3.22;85.41
11347;BME280;5728;42.722;23.258;2023-11-19T00:22:25;94736.09;;;3.22;86.03
11347;BME280;5728;42.722;23.258;2023-11-19T00:24:51;94740.44;;;3.28;85.97
11347;BME280;5728;42.722;23.258;2023-11-19T00:27:18;94733.53;;;3.21;85.65
11347;BME280;5728;42.722;23.258;2023-11-19T00:29:46;94728.38;;;3.18;85.74
11347;BME280;5728;42.722;23.258;2023-11-19T00:32:12;94736.16;;;3.26;85.54
11347;BME280;5728;42.722;23.258;2023-11-19T00:34:43;94720.81;;;3.29;85.43
11347;BME280;5728;42.722;23.258;2023-11-19T00:37:10;94737.78;;;3.19;85.93
11347;BME280;5728;42.722;23.258;2023-11-19T00:39:37;94755.63;;;3.13;85.93
11347;BME280;5728;42.722;23.258;2023-11-19T00:42:04;94752.25;;;3.14;86.22
11347;BME280;5728;42.722;23.258;2023-11-19T00:44:31;94753.94;;;3.13;86.07
11347;BME280;5728;42.722;23.258;2023-11-19T00:46:58;94749.69;;;3.14;86.38
11347;BME280;5728;42.722;23.258;2023-11-19T00:49:26;94752.28;;;3.17;86.08
11347;BME280;5728;42.722;23.258;2023-11-19T00:51:54;94748.91;;;3.21;86.06
11347;BME280;5728;42.722;23.258;2023-11-19T00:54:21;94745.56;;;3.27;86.43
11347;BME280;5728;42.722;23.258;2023-11-19T00:56:50;94753.13;;;3.17;86.09
11347;BME280;5728;42.722;23.258;2023-11-19T00:59:17;94733.44;;;3.12;86.00
11347;BME280;5728;42.722;23.258;2023-11-19T01:01:44;94739.44;;;3.15;86.24
11347;BME280;5728;42.722;23.258;2023-11-19T01:04:11;94751.41;;;3.16;85.58
11347;BME280;5728;42.722;23.258;2023-11-19T01:06:38;94742.88;;;3.17;85.25
11347;BME280;5728;42.722;23.258;2023-11-19T01:09:06;94746.28;;;3.16;86.06
11347;BME280;5728;42.722;23.258;2023-11-19T01:11:34;94740.31;;;3.16;85.56
11347;BME280;5728;42.722;23.258;2023-11-19T01:14:02;94752.38;;;3.25;85.75
11347;BME280;5728;42.722;23.258;2023-11-19T01:16:28;94758.22;;;3.14;86.13
11347;BME280;5728;42.722;23.258;2023-11-19T01:18:56;94760.81;;;3.16;86.32
11347;BME280;5728;42.722;23.258;2023-11-19T01:21:23;94755.59;;;3.08;86.54
11347;BME280;5728;42.722;23.258;2023-11-19T01:23:50;94759.84;;;3.08;86.31
11347;BME280;5728;42.722;23.258;2023-11-19T01:26:18;94759.84;;;3.06;85.67
11347;BME280;5728;42.722;23.258;2023-11-19T01:28:45;94770.94;;;3.08;86.21
11347;BME280;5728;42.722;23.258;2023-11-19T01:31:12;94765.00;;;3.09;85.70
11347;BME280;5728;42.722;23.258;2023-11-19T01:33:41;94762.53;;;3.20;85.31
11347;BME280;5728;42.722;23.258;2023-11-19T01:36:09;94784.59;;;3.07;85.41
11347;BME280;5728;42.722;23.258;2023-11-19T01:38:36;94783.81;;;3.13;86.00
11347;BME280;5728;42.722;23.258;2023-11-19T01:41:03;94782.84;;;3.05;85.70
11347;BME280;5728;42.722;23.258;2023-11-19T01:43:36;94785.56;;;3.15;84.67
11347;BME280;5728;42.722;23.258;2023-11-19T01:46:05;94794.09;;;3.14;84.16
11347;BME280;5728;42.722;23.258;2023-11-19T01:48:34;94781.22;;;3.10;84.02
11347;BME280;5728;42.722;23.258;2023-11-19T01:51:03;94799.09;;;3.05;84.79
11347;BME280;5728;42.722;23.258;2023-11-19T01:53:30;94794.00;;;3.08;84.15
11347;BME280;5728;42.722;23.258;2023-11-19T01:55:57;94792.50;;;3.26;84.51
11347;BME280;5728;42.722;23.258;2023-11-19T01:58:25;94789.91;;;3.19;83.46
11347;BME280;5728;42.722;23.258;2023-11-19T02:01:12;94794.00;;;3.10;83.88
11347;BME280;5728;42.722;23.258;2023-11-19T02:03:39;94786.38;;;3.11;83.38
11347;BME280;5728;42.722;23.258;2023-11-19T02:06:07;94782.84;;;3.05;83.71
11347;BME280;5728;42.722;23.258;2023-11-19T02:08:35;94784.47;;;2.98;84.04
11347;BME280;5728;42.722;23.258;2023-11-19T02:11:02;94775.06;;;2.94;84.25
11347;BME280;5728;42.722;23.258;2023-11-19T02:13:30;94772.50;;;2.94;84.34
11347;BME280;5728;42.722;23.258;2023-11-19T02:15:56;94788.00;;;3.06;83.49
11347;BME280;5728;42.722;23.258;2023-11-19T02:18:27;94774.19;;;2.94;83.71
11347;BME280;5728;42.722;23.258;2023-11-19T02:20:54;94771.59;;;2.92;83.81
11347;BME280;5728;42.722;23.258;2023-11-19T02:23:22;94780.03;;;2.85;84.20
11347;BME280;5728;42.722;23.258;2023-11-19T02:26:00;94773.97;;;2.79;84.86
11347;BME280;5728;42.722;23.258;2023-11-19T02:28:29;94774.84;;;2.79;85.01
11347;BME280;5728;42.722;23.258;2023-11-19T02:30:58;94768.16;;;2.90;84.67
11347;BME280;5728;42.722;23.258;2023-11-19T02:33:25;94756.00;;;2.77;85.17
11347;BME280;5728;42.722;23.258;2023-11-19T02:35:52;94764.41;;;2.67;85.04
11347;BME280;5728;42.722;23.258;2023-11-19T02:38:18;94753.44;;;2.76;84.69
11347;BME280;5728;42.722;23.258;2023-11-19T02:40:47;94756.59;;;2.58;86.29
11347;BME280;5728;42.722;23.258;2023-11-19T02:43:14;94766.91;;;2.61;86.61
11347;BME280;5728;42.722;23.258;2023-11-19T02:45:43;94761.75;;;2.59;86.32
11347;BME280;5728;42.722;23.258;2023-11-19T02:48:11;94772.22;;;2.76;85.78
11347;BME280;5728;42.722;23.258;2023-11-19T02:50:39;94776.22;;;2.56;86.07
11347;BME280;5728;42.722;23.258;2023-11-19T02:53:06;94774.47;;;2.55;87.48
11347;BME280;5728;42.722;23.258;2023-11-19T02:55:33;94777.91;;;2.55;87.06
11347;BME280;5728;42.722;23.258;2023-11-19T02:58:03;94757.66;;;2.72;86.65
11347;BME280;5728;42.722;23.258;2023-11-19T03:00:35;94773.78;;;2.65;85.98
11347;BME280;5728;42.722;23.258;2023-11-19T03:03:08;94760.91;;;2.59;86.61
11347;BME280;5728;42.722;23.258;2023-11-19T03:05:47;94756.41;;;2.44;87.03
11347;BME280;5728;42.722;23.258;2023-11-19T03:08:14;94763.31;;;2.50;87.00
11347;BME280;5728;42.722;23.258;2023-11-19T03:10:42;94784.72;;;2.55;86.03
11347;BME280;5728;42.722;23.258;2023-11-19T03:13:12;94785.78;;;2.69;86.40
11347;BME280;5728;42.722;23.258;2023-11-19T03:15:40;94795.88;;;2.58;85.18
11347;BME280;5728;42.722;23.258;2023-11-19T03:18:09;94797.72;;;2.69;85.10
11347;BME280;5728;42.722;23.258;2023-11-19T03:20:36;94788.31;;;2.66;84.86
11347;BME280;5728;42.722;23.258;2023-11-19T03:23:02;94803.84;;;2.80;85.31
11347;BME280;5728;42.722;23.258;2023-11-19T03:25:29;94796.09;;;2.74;85.47
11347;BME280;5728;42.722;23.258;2023-11-19T03:27:59;94796.13;;;2.77;84.78
11347;BME280;5728;42.722;23.258;2023-11-19T03:30:27;94800.47;;;2.82;85.50
11347;BME280;5728;42.722;23.258;2023-11-19T03:32:54;94802.19;;;2.83;85.07
11347;BME280;5728;42.722;23.258;2023-11-19T03:35:23;94811.63;;;2.86;84.57
11347;BME280;5728;42.722;23.258;2023-11-19T03:37:50;94803.72;;;2.69;85.72
11347;BME280;5728;42.722;23.258;2023-11-19T03:40:18;94813.97;;;2.72;85.40
11347;BME280;5728;42.722;23.258;2023-11-19T03:42:45;94809.78;;;2.77;85.73
11347;BME280;5728;42.722;23.258;2023-11-19T03:45:12;94817.47;;;2.77;84.92
11347;BME280;5728;42.722;23.258;2023-11-19T03:47:40;94831.34;;;2.91;84.92
11347;BME280;5728;42.722;23.258;2023-11-19T03:50:07;94841.41;;;2.81;84.64
11347;BME280;5728;42.722;23.258;2023-11-19T03:52:36;94845.03;;;2.93;84.62
11347;BME280;5728;42.722;23.258;2023-11-19T03:55:03;94845.06;;;2.98;84.20
11347;BME280;5728;42.722;23.258;2023-11-19T03:57:31;94835.69;;;2.97;84.41
11347;BME280;5728;42.722;23.258;2023-11-19T03:59:57;94821.97;;;2.95;84.79
11347;BME280;5728;42.722;23.258;2023-11-19T04:02:25;94836.50;;;2.94;83.52
11347;BME280;5728;42.722;23.258;2023-11-19T04:04:53;94831.41;;;2.96;84.12
11347;BME280;5728;42.722;23.258;2023-11-19T04:07:21;94831.59;;;3.09;85.41
11347;BME280;5728;42.722;23.258;2023-11-19T04:09:49;94841.84;;;3.09;84.29
11347;BME280;5728;42.722;23.258;2023-11-19T04:12:16;94839.06;;;2.96;84.79
11347;BME280;5728;42.722;23.258;2023-11-19T04:14:43;94844.09;;;2.88;84.84
11347;BME280;5728;42.722;23.258;2023-11-19T04:17:10;94838.91;;;2.85;84.86
11347;BME280;5728;42.722;23.258;2023-11-19T04:19:37;94842.47;;;2.95;84.65
11347;BME280;5728;42.722;23.258;2023-11-19T04:22:07;94835.59;;;2.92;85.20
11347;BME280;5728;42.722;23.258;2023-11-19T04:24:34;94834.78;;;2.93;84.48
11347;BME280;5728;42.722;23.258;2023-11-19T04:27:02;94843.34;;;2.95;84.57
11347;BME280;5728;42.722;23.258;2023-11-19T04:29:30;94841.69;;;3.00;84.03
11347;BME280;5728;42.722;23.258;2023-11-19T04:31:58;94857.06;;;2.99;83.98
11347;BME280;5728;42.722;23.258;2023-11-19T04:34:26;94852.69;;;2.93;84.08
11347;BME280;5728;42.722;23.258;2023-11-19T04:36:53;94850.13;;;2.93;84.46
11347;BME280;5728;42.722;23.258;2023-11-19T04:39:20;94854.31;;;2.87;84.43
11347;BME280;5728;42.722;23.258;2023-11-19T04:41:48;94857.00;;;2.94;84.70
11347;BME280;5728;42.722;23.258;2023-11-19T04:44:16;94852.47;;;2.80;85.05
11347;BME280;5728;42.722;23.258;2023-11-19T04:46:44;94847.63;;;2.98;83.98
11347;BME280;5728;42.722;23.258;2023-11-19T04:49:11;94841.53;;;2.88;84.80
11347;BME280;5728;42.722;23.258;2023-11-19T04:51:39;94849.91;;;2.77;83.76
11347;BME280;5728;42.722;23.258;2023-11-19T04:54:06;94864.34;;;2.73;84.18
11347;BME280;5728;42.722;23.258;2023-11-19T04:56:34;94845.44;;;2.65;85.08
11347;BME280;5728;42.722;23.258;2023-11-19T04:59:01;94848.75;;;2.59;85.05
11347;BME280;5728;42.722;23.258;2023-11-19T05:01:30;94858.47;;;2.80;84.34
11347;BME280;5728;42.722;23.258;2023-11-19T05:03:57;94860.28;;;2.87;84.32
11347;BME280;5728;42.722;23.258;2023-11-19T05:06:26;94882.50;;;2.88;84.41
11347;BME280;5728;42.722;23.258;2023-11-19T05:08:54;94886.69;;;2.85;84.12
11347;BME280;5728;42.722;23.258;2023-11-19T05:11:21;94883.25;;;2.83;83.96
11347;BME280;5728;42.722;23.258;2023-11-19T05:13:48;94891.00;;;2.84;84.40
11347;BME280;5728;42.722;23.258;2023-11-19T05:16:15;94885.28;;;3.02;84.49
11347;BME280;5728;42.722;23.258;2023-11-19T05:18:44;94871.44;;;2.91;84.48
11347;BME280;5728;42.722;23.258;2023-11-19T05:21:11;94881.50;;;2.79;84.40
11347;BME280;5728;42.722;23.258;2023-11-19T05:23:38;94869.69;;;2.87;83.94
11347;BME280;5728;42.722;23.258;2023-11-19T05:26:05;94881.44;;;2.76;84.53
11347;BME280;5728;42.722;23.258;2023-11-19T05:28:32;94885.13;;;2.91;84.24
11347;BME280;5728;42.722;23.258;2023-11-19T05:30:59;94866.44;;;3.00;83.64
11347;BME280;5728;42.722;23.258;2023-11-19T05:33:25;94875.63;;;2.86;82.67
11347;BME280;5728;42.722;23.258;2023-11-19T05:35:54;94882.41;;;2.82;83.88
11347;BME280;5728;42.722;23.258;2023-11-19T05:38:22;94884.03;;;2.77;83.68
11347;BME280;5728;42.722;23.258;2023-11-19T05:40:49;94889.25;;;2.83;83.56
11347;BME280;5728;42.722;23.258;2023-11-19T05:43:16;94880.09;;;2.99;83.50
11347;BME280;5728;42.722;23.258;2023-11-19T05:45:43;94886.69;;;2.83;83.66
11347;BME280;5728;42.722;23.258;2023-11-19T05:48:10;94894.72;;;3.04;82.95
11347;BME280;5728;42.722;23.258;2023-11-19T05:50:37;94899.69;;;2.95;83.92
11347;BME280;5728;42.722;23.258;2023-11-19T05:53:05;94882.56;;;2.91;83.06
11347;BME280;5728;42.722;23.258;2023-11-19T05:55:35;94904.56;;;2.80;83.06
11347;BME280;5728;42.722;23.258;2023-11-19T05:58:10;94901.94;;;2.76;84.47
11347;BME280;5728;42.722;23.258;2023-11-19T06:00:38;94915.41;;;2.66;84.08
11347;BME280;5728;42.722;23.258;2023-11-19T06:03:05;94912.28;;;2.82;84.07
11347;BME280;5728;42.722;23.258;2023-11-19T06:05:31;94918.09;;;2.73;84.60
11347;BME280;5728;42.722;23.258;2023-11-19T06:07:58;94931.16;;;2.87;84.02
11347;BME280;5728;42.722;23.258;2023-11-19T06:10:26;94921.50;;;2.72;84.23
11347;BME280;5728;42.722;23.258;2023-11-19T06:12:57;94918.03;;;2.70;84.03
11347;BME280;5728;42.722;23.258;2023-11-19T06:15:25;94912.88;;;2.67;83.91
11347;BME280;5728;42.722;23.258;2023-11-19T06:17:52;94921.28;;;2.60;84.64
11347;BME280;5728;42.722;23.258;2023-11-19T06:20:20;94922.09;;;2.57;84.58
11347;BME280;5728;42.722;23.258;2023-11-19T06:22:47;94921.28;;;2.58;84.29
11347;BME280;5728;42.722;23.258;2023-11-19T06:25:13;94919.75;;;2.70;84.41
11347;BME280;5728;42.722;23.258;2023-11-19T06:27:42;94927.34;;;2.65;84.07
11347;BME280;5728;42.722;23.258;2023-11-19T06:30:10;94939.06;;;2.51;85.02
11347;BME280;5728;42.722;23.258;2023-11-19T06:32:37;94933.44;;;2.72;84.86
11347;BME280;5728;42.722;23.258;2023-11-19T06:35:05;94923.28;;;2.76;84.67
11347;BME280;5728;42.722;23.258;2023-11-19T06:37:32;94942.28;;;2.90;85.32
11347;BME280;5728;42.722;23.258;2023-11-19T06:39:59;94933.97;;;3.03;84.67
11347;BME280;5728;42.722;23.258;2023-11-19T06:42:26;94940.75;;;3.01;82.57
11347;BME280;5728;42.722;23.258;2023-11-19T06:44:54;94926.72;;;2.77;82.84
11347;BME280;5728;42.722;23.258;2023-11-19T06:47:22;94931.03;;;2.81;83.48
11347;BME280;5728;42.722;23.258;2023-11-19T06:49:49;94935.97;;;2.69;83.16
11347;BME280;5728;42.722;23.258;2023-11-19T06:52:17;94926.59;;;2.72;83.43
11347;BME280;5728;42.722;23.258;2023-11-19T06:54:44;94934.97;;;2.62;82.61
11347;BME280;5728;42.722;23.258;2023-11-19T06:57:11;94935.00;;;2.64;83.26
11347;BME280;5728;42.722;23.258;2023-11-19T06:59:39;94940.97;;;2.63;83.05
11347;BME280;5728;42.722;23.258;2023-11-19T07:02:07;94935.56;;;2.47;84.07
11347;BME280;5728;42.722;23.258;2023-11-19T07:04:34;94933.88;;;2.46;83.29
11347;BME280;5728;42.722;23.258;2023-11-19T07:07:01;94940.91;;;2.59;82.96
11347;BME280;5728;42.722;23.258;2023-11-19T07:09:28;94952.06;;;2.63;83.52
11347;BME280;5728;42.722;23.258;2023-11-19T07:11:54;94942.72;;;2.65;83.23
11347;BME280;5728;42.722;23.258;2023-11-19T07:14:21;94936.81;;;2.69;83.12
11347;BME280;5728;42.722;23.258;2023-11-19T07:16:48;94945.44;;;2.74;83.84
11347;BME280;5728;42.722;23.258;2023-11-19T07:19:17;94940.13;;;2.64;84.23
11347;BME280;5728;42.722;23.258;2023-11-19T07:21:44;94940.75;;;2.50;83.15
11347;BME280;5728;42.722;23.258;2023-11-19T07:24:11;94936.59;;;2.57;83.47
11347;BME280;5728;42.722;23.258;2023-11-19T07:26:42;94934.94;;;2.59;82.53
11347;BME280;5728;42.722;23.258;2023-11-19T07:29:09;94942.72;;;2.65;83.72
11347;BME280;5728;42.722;23.258;2023-11-19T07:31:36;94967.31;;;2.57;83.14
11347;BME280;5728;42.722;23.258;2023-11-19T07:34:03;94972.16;;;2.42;83.31
11347;BME280;5728;42.722;23.258;2023-11-19T07:36:33;94965.31;;;2.41;82.75
11347;BME280;5728;42.722;23.258;2023-11-19T07:39:00;94956.94;;;2.49;82.92
11347;BME280;5728;42.722;23.258;2023-11-19T07:41:27;94947.59;;;2.51;82.53
11347;BME280;5728;42.722;23.258;2023-11-19T07:43:54;94969.03;;;2.58;83.05
11347;BME280;5728;42.722;23.258;2023-11-19T07:46:21;94962.41;;;2.69;82.98
11347;BME280;5728;42.722;23.258;2023-11-19T07:48:48;94964.84;;;2.62;82.75
11347;BME280;5728;42.722;23.258;2023-11-19T07:51:15;94980.22;;;2.62;81.45
11347;BME280;5728;42.722;23.258;2023-11-19T07:53:43;94975.09;;;2.62;82.05
11347;BME280;5728;42.722;23.258;2023-11-19T07:56:10;94983.59;;;2.61;82.29
11347;BME280;5728;42.722;23.258;2023-11-19T07:58:37;94976.72;;;2.58;82.39
11347;BME280;5728;42.722;23.258;2023-11-19T08:01:05;94973.28;;;2.57;81.88
11347;BME280;5728;42.722;23.258;2023-11-19T08:03:32;94980.28;;;2.66;81.82
11347;BME280;5728;42.722;23.258;2023-11-19T08:05:59;94991.41;;;2.68;81.97
11347;BME280;5728;42.722;23.258;2023-11-19T08:08:26;94981.97;;;2.66;81.05
11347;BME280;5728;42.722;23.258;2023-11-19T08:10:56;94979.34;;;2.61;82.02
11347;BME280;5728;42.722;23.258;2023-11-19T08:13:23;94993.16;;;2.69;83.07
11347;BME280;5728;42.722;23.258;2023-11-19T08:15:50;95002.03;;;2.91;82.87
11347;BME280;5728;42.722;23.258;2023-11-19T08:18:18;94988.63;;;3.05;81.86
11347;BME280;5728;42.722;23.258;2023-11-19T08:20:45;95004.59;;;2.89;81.47
11347;BME280;5728;42.722;23.258;2023-11-19T08:23:15;94993.63;;;2.98;80.72
11347;BME280;5728;42.722;23.258;2023-11-19T08:25:42;94999.59;;;2.97;81.20
11347;BME280;5728;42.722;23.258;2023-11-19T08:28:11;94995.91;;;2.83;80.85
11347;BME280;5728;42.722;23.258;2023-11-19T08:30:37;94995.69;;;2.69;80.84
11347;BME280;5728;42.722;23.258;2023-11-19T08:33:05;94998.13;;;2.63;82.84
11347;BME280;5728;42.722;23.258;2023-11-19T08:35:32;95005.28;;;2.82;82.08
11347;BME280;5728;42.722;23.258;2023-11-19T08:37:59;95015.06;;;3.03;81.28
11347;BME280;5728;42.722;23.258;2023-11-19T08:40:27;95019.03;;;2.87;80.65
11347;BME280;5728;42.722;23.258;2023-11-19T08:42:55;95016.34;;;2.80;81.81
11347;BME280;5728;42.722;23.258;2023-11-19T08:45:23;95006.38;;;2.95;81.80
11347;BME280;5728;42.722;23.258;2023-11-19T08:47:50;95003.72;;;2.90;80.98
11347;BME280;5728;42.722;23.258;2023-11-19T08:50:17;95005.53;;;2.94;80.63
11347;BME280;5728;42.722;23.258;2023-11-19T08:52:43;94996.72;;;2.80;80.83
11347;BME280;5728;42.722;23.258;2023-11-19T08:55:09;95012.31;;;2.92;81.03
11347;BME280;5728;42.722;23.258;2023-11-19T08:57:39;95012.34;;;2.95;79.60
11347;BME280;5728;42.722;23.258;2023-11-19T09:00:06;95012.56;;;3.07;79.65
11347;BME280;5728;42.722;23.258;2023-11-19T09:02:35;94995.97;;;2.84;80.15
11347;BME280;5728;42.722;23.258;2023-11-19T09:05:02;95002.84;;;2.87;80.20
11347;BME280;5728;42.722;23.258;2023-11-19T09:07:29;95012.41;;;2.98;79.77
11347;BME280;5728;42.722;23.258;2023-11-19T09:09:56;95011.41;;;2.90;79.38
11347;BME280;5728;42.722;23.258;2023-11-19T09:12:23;95008.91;;;2.93;79.78
11347;BME280;5728;42.722;23.258;2023-11-19T09:14:50;94988.31;;;2.87;80.15
11347;BME280;5728;42.722;23.258;2023-11-19T09:17:16;94980.16;;;3.09;79.15
11347;BME280;5728;42.722;23.258;2023-11-19T09:19:45;94985.19;;;3.03;79.34
11347;BME280;5728;42.722;23.258;2023-11-19T09:22:12;95000.50;;;3.00;80.10
11347;BME280;5728;42.722;23.258;2023-11-19T09:24:39;95002.31;;;3.06;79.60
11347;BME280;5728;42.722;23.258;2023-11-19T09:27:06;95031.44;;;3.12;77.73
11347;BME280;5728;42.722;23.258;2023-11-19T09:29:33;95016.84;;;3.08;77.97
11347;BME280;5728;42.722;23.258;2023-11-19T09:32:00;94993.75;;;3.05;79.24
11347;BME280;5728;42.722;23.258;2023-11-19T09:34:27;94982.69;;;3.08;79.06
11347;BME280;5728;42.722;23.258;2023-11-19T09:36:55;94990.41;;;3.09;78.26
11347;BME280;5728;42.722;23.258;2023-11-19T09:39:22;94969.13;;;3.15;78.08
11347;BME280;5728;42.722;23.258;2023-11-19T09:41:51;94976.81;;;3.13;78.32
11347;BME280;5728;42.722;23.258;2023-11-19T09:44:19;94973.84;;;3.42;78.21
11347;BME280;5728;42.722;23.258;2023-11-19T09:46:46;94958.41;;;3.39;77.52
11347;BME280;5728;42.722;23.258;2023-11-19T09:49:14;94942.69;;;3.17;77.01
11347;BME280;5728;42.722;23.258;2023-11-19T09:51:42;94946.13;;;3.16;78.30
11347;BME280;5728;42.722;23.258;2023-11-19T09:54:11;94932.69;;;3.33;78.74
11347;BME280;5728;42.722;23.258;2023-11-19T09:56:39;94933.75;;;3.47;77.24
11347;BME280;5728;42.722;23.258;2023-11-19T09:59:07;94932.81;;;3.42;77.76
11347;BME280;5728;42.722;23.258;2023-11-19T10:01:35;94922.34;;;3.27;77.92
11347;BME280;5728;42.722;23.258;2023-11-19T10:04:04;94929.19;;;3.28;77.98
11347;BME280;5728;42.722;23.258;2023-11-19T10:06:31;94935.94;;;3.19;77.94
11347;BME280;5728;42.722;23.258;2023-11-19T10:08:58;94927.66;;;3.37;77.85
11347;BME280;5728;42.722;23.258;2023-11-19T10:11:27;94919.19;;;3.46;77.02
11347;BME280;5728;42.722;23.258;2023-11-19T10:13:54;94925.97;;;3.41;77.45
11347;BME280;5728;42.722;23.258;2023-11-19T10:16:20;94924.31;;;3.46;77.05
11347;BME280;5728;42.722;23.258;2023-11-19T10:18:55;94943.13;;;3.45;78.17
11347;BME280;5728;42.722;23.258;2023-11-19T10:21:22;94939.41;;;3.25;77.34
11347;BME280;5728;42.722;23.258;2023-11-19T10:23:50;94935.34;;;3.37;77.98
11347;BME280;5728;42.722;23.258;2023-11-19T10:26:18;94937.25;;;3.52;78.14
11347;BME280;5728;42.722;23.258;2023-11-19T10:28:47;94920.19;;;3.55;78.27
11347;BME280;5728;42.722;23.258;2023-11-19T10:31:14;94912.53;;;3.57;77.68
11347;BME280;5728;42.722;23.258;2023-11-19T10:33:41;94910.69;;;3.48;77.54
11347;BME280;5728;42.722;23.258;2023-11-19T10:36:10;94914.03;;;3.43;75.93
11347;BME280;5728;42.722;23.258;2023-11-19T10:38:38;94919.97;;;3.40;76.81
11347;BME280;5728;42.722;23.258;2023-11-19T10:41:05;94922.69;;;3.51;77.47
11347;BME280;5728;42.722;23.258;2023-11-19T10:43:42;94923.66;;;3.60;76.35
11347;BME280;5728;42.722;23.258;2023-11-19T10:46:12;94908.31;;;3.63;75.02
11347;BME280;5728;42.722;23.258;2023-11-19T10:48:39;94924.63;;;3.68;75.42
11347;BME280;5728;42.722;23.258;2023-11-19T10:51:07;94932.38;;;3.71;75.62
11347;BME280;5728;42.722;23.258;2023-11-19T10:53:37;94929.91;;;3.79;74.47
11347;BME280;5728;42.722;23.258;2023-11-19T10:56:09;94925.50;;;3.67;75.14
11347;BME280;5728;42.722;23.258;2023-11-19T10:58:37;94923.72;;;3.63;75.68
11347;BME280;5728;42.722;23.258;2023-11-19T11:01:11;94914.22;;;3.55;75.39
11347;BME280;5728;42.722;23.258;2023-11-19T11:03:40;94916.25;;;3.81;75.81
11347;BME280;5728;42.722;23.258;2023-11-19T11:06:08;94902.53;;;3.78;75.46
11347;BME280;5728;42.722;23.258;2023-11-19T11:08:36;94891.63;;;3.94;75.22
11347;BME280;5728;42.722;23.258;2023-11-19T11:11:05;94894.31;;;4.06;75.80
11347;BME280;5728;42.722;23.258;2023-11-19T11:13:33;94888.47;;;4.18;75.27
11347;BME280;5728;42.722;23.258;2023-11-19T11:16:00;94886.00;;;4.28;74.09
11347;BME280;5728;42.722;23.258;2023-11-19T11:18:28;94875.69;;;4.22;74.70
11347;BME280;5728;42.722;23.258;2023-11-19T11:20:59;94874.06;;;4.33;74.56
11347;BME280;5728;42.722;23.258;2023-11-19T11:23:44;94884.41;;;4.39;75.24
11347;BME280;5728;42.722;23.258;2023-11-19T11:26:27;94875.84;;;4.37;75.54
11347;BME280;5728;42.722;23.258;2023-11-19T11:29:02;94874.19;;;4.45;74.68
11347;BME280;5728;42.722;23.258;2023-11-19T11:31:36;94885.84;;;4.13;74.47
11347;BME280;5728;42.722;23.258;2023-11-19T11:37:16;94870.69;;;4.37;74.20
11347;BME280;5728;42.722;23.258;2023-11-19T11:39:45;94866.00;;;4.92;72.70
11347;BME280;5728;42.722;23.258;2023-11-19T11:42:32;94863.06;;;5.74;69.78
11347;BME280;5728;42.722;23.258;2023-11-19T11:45:00;94853.63;;;5.70;68.06
11347;BME280;5728;42.722;23.258;2023-11-19T11:50:28;94855.50;;;6.12;66.83
11347;BME280;5728;42.722;23.258;2023-11-19T11:53:17;94842.69;;;7.32;64.02
11347;BME280;5728;42.722;23.258;2023-11-19T11:56:00;94855.59;;;7.00;63.05
11347;BME280;5728;42.722;23.258;2023-11-19T11:58:32;94855.59;;;6.55;64.06
11347;BME280;5728;42.722;23.258;2023-11-19T12:01:04;94847.88;;;6.95;64.37
11347;BME280;5728;42.722;23.258;2023-11-19T12:03:32;94852.13;;;7.25;62.66
11347;BME280;5728;42.722;23.258;2023-11-19T12:06:20;94842.72;;;7.04;62.70
11347;BME280;5728;42.722;23.258;2023-11-19T12:08:48;94828.97;;;7.05;62.45
11347;BME280;5728;42.722;23.258;2023-11-19T12:11:16;94828.75;;;7.78;59.95
11347;BME280;5728;42.722;23.258;2023-11-19T12:13:55;94833.78;;;8.11;59.77
11347;BME280;5728;42.722;23.258;2023-11-19T12:16:24;94836.41;;;8.01;59.35
11347;BME280;5728;42.722;23.258;2023-11-19T12:18:53;94828.59;;;8.16;60.21
11347;BME280;5728;42.722;23.258;2023-11-19T12:21:31;94816.38;;;8.47;58.69
11347;BME280;5728;42.722;23.258;2023-11-19T12:24:00;94817.13;;;8.62;59.19
11347;BME280;5728;42.722;23.258;2023-11-19T12:26:40;94819.94;;;8.24;58.52
11347;BME280;5728;42.722;23.258;2023-11-19T12:29:06;94821.28;;;8.83;58.30
11347;BME280;5728;42.722;23.258;2023-11-19T12:31:34;94817.25;;;8.47;57.59
11347;BME280;5728;42.722;23.258;2023-11-19T12:34:08;94818.81;;;8.69;57.38
11347;BME280;5728;42.722;23.258;2023-11-19T12:36:41;94813.22;;;7.93;60.39
11347;BME280;5728;42.722;23.258;2023-11-19T12:39:09;94801.94;;;8.09;59.56
11347;BME280;5728;42.722;23.258;2023-11-19T12:41:53;94802.22;;;7.47;60.95
11347;BME280;5728;42.722;23.258;2023-11-19T12:44:21;94792.78;;;7.42;62.60
11347;BME280;5728;42.722;23.258;2023-11-19T12:47:00;94800.53;;;7.37;61.75
11347;BME280;5728;42.722;23.258;2023-11-19T12:49:27;94807.34;;;7.58;61.87
11347;BME280;5728;42.722;23.258;2023-11-19T12:51:54;94800.59;;;7.05;64.33
11347;BME280;5728;42.722;23.258;2023-11-19T12:54:33;94799.78;;;6.75;64.62
11347;BME280;5728;42.722;23.258;2023-11-19T12:57:00;94799.78;;;6.94;64.20
11347;BME280;5728;42.722;23.258;2023-11-19T12:59:28;94791.19;;;6.94;65.00
11347;BME280;5728;42.722;23.258;2023-11-19T13:01:55;94789.38;;;7.28;64.28
11347;BME280;5728;42.722;23.258;2023-11-19T13:04:23;94773.16;;;6.76;64.32
11347;BME280;5728;42.722;23.258;2023-11-19T13:06:50;94778.28;;;6.92;63.74
11347;BME280;5728;42.722;23.258;2023-11-19T13:09:22;94785.13;;;7.15;63.49
11347;BME280;5728;42.722;23.258;2023-11-19T13:11:52;94787.56;;;7.57;62.94
11347;BME280;5728;42.722;23.258;2023-11-19T13:14:19;94784.09;;;7.61;61.87
11347;BME280;5728;42.722;23.258;2023-11-19T13:16:46;94779.94;;;7.18;62.59
11347;BME280;5728;42.722;23.258;2023-11-19T13:19:13;94776.59;;;6.70;63.81
11347;BME280;5728;42.722;23.258;2023-11-19T13:21:42;94771.38;;;7.11;65.05